createdAt,value
2022-12-23T00:01:05.858Z,10.50
2022-12-23T00:06:13.767Z,12.00
2022-12-23T00:11:19.259Z,9.90
2022-12-23T00:16:22.128Z,11.40
2022-12-23T00:21:23.953Z,11.60
2022-12-23T00:26:27.752Z,11.10
2022-12-23T00:31:30.769Z,11.60
2022-12-23T00:36:32.735Z,9.80
2022-12-23T00:41:54.569Z,11.70
2022-12-23T00:46:56.397Z,11.80
2022-12-23T00:51:58.617Z,11.40
2022-12-23T00:57:01.053Z,12.80
2022-12-23T01:02:22.124Z,11.70
2022-12-23T01:07:24.825Z,12.80
2022-12-23T01:12:26.583Z,16.00
2022-12-23T01:17:28.274Z,15.00
2022-12-23T01:22:29.990Z,17.10
2022-12-23T01:27:31.775Z,19.70
2022-12-23T01:32:33.464Z,17.20
2022-12-23T01:37:35.404Z,19.20
2022-12-23T01:42:46.771Z,17.90
2022-12-23T01:48:01.582Z,17.00
2022-12-23T01:53:15.519Z,14.40
2022-12-23T01:58:23.250Z,16.80
2022-12-23T02:03:43.768Z,15.00
2022-12-23T02:09:12.113Z,14.00
2022-12-23T02:14:54.808Z,13.50
2022-12-23T02:20:29.376Z,14.90
2022-12-23T02:25:57.619Z,15.60
2022-12-23T02:31:19.958Z,15.60
2022-12-23T02:36:42.872Z,16.90
2022-12-23T02:42:02.486Z,14.90
2022-12-23T02:47:11.425Z,14.30
2022-12-23T02:52:15.883Z,16.80
2022-12-23T02:57:23.633Z,16.30
2022-12-23T03:02:25.474Z,15.70
2022-12-23T03:07:35.389Z,15.50
2022-12-23T03:13:15.376Z,14.80
2022-12-23T03:18:52.556Z,15.30
2022-12-23T03:24:03.986Z,15.00
2022-12-23T03:29:17.430Z,15.50
2022-12-23T03:34:24.455Z,14.90
2022-12-23T03:39:32.933Z,15.60
2022-12-23T03:45:03.610Z,15.60
2022-12-23T03:50:11.367Z,15.80
2022-12-23T03:55:22.173Z,13.60
2022-12-23T04:00:25.464Z,15.70
2022-12-23T04:05:35.682Z,13.60
2022-12-23T04:10:37.761Z,16.20
2022-12-23T04:15:41.397Z,13.70
2022-12-23T04:20:43.283Z,14.00
2022-12-23T04:25:44.990Z,13.80
2022-12-23T04:30:46.859Z,13.10
2022-12-23T04:35:48.634Z,12.80
2022-12-23T04:40:50.375Z,13.00
2022-12-23T04:45:52.308Z,12.20
2022-12-23T04:50:53.996Z,12.00
2022-12-23T04:55:55.695Z,12.40
2022-12-23T05:01:05.797Z,12.50
2022-12-23T05:06:08.163Z,12.70
2022-12-23T05:11:09.866Z,13.50
2022-12-23T05:16:11.777Z,13.00
2022-12-23T05:21:13.898Z,11.80
2022-12-23T05:26:15.619Z,11.10
2022-12-23T05:31:17.519Z,13.00
2022-12-23T05:36:19.411Z,12.50
2022-12-23T05:41:21.118Z,14.50
2022-12-23T05:46:26.805Z,15.80
2022-12-23T05:51:29.080Z,16.70
2022-12-23T05:56:30.848Z,15.50
2022-12-23T06:01:32.810Z,14.20
2022-12-23T06:06:34.748Z,15.50
2022-12-23T06:11:36.566Z,16.30
2022-12-23T06:16:38.384Z,17.50
2022-12-23T06:21:40.126Z,16.60
2022-12-23T06:26:42.563Z,16.90
2022-12-23T06:31:44.721Z,16.70
2022-12-23T06:36:46.713Z,19.50
2022-12-23T06:41:48.541Z,18.20
2022-12-23T06:46:50.322Z,14.20
2022-12-23T06:51:52.200Z,14.90
2022-12-23T06:56:53.881Z,13.00
2022-12-23T07:01:55.750Z,12.30
2022-12-23T07:06:57.977Z,11.70
2022-12-23T07:11:59.706Z,11.00
2022-12-23T07:17:01.690Z,10.80
2022-12-23T07:22:03.545Z,11.30
2022-12-23T07:27:05.372Z,12.70
2022-12-23T07:32:07.172Z,12.70
2022-12-23T07:37:09.098Z,12.20
2022-12-23T07:47:32.544Z,11.40
2022-12-23T07:52:34.405Z,10.70
2022-12-23T07:57:38.319Z,10.30
2022-12-23T08:02:41.141Z,10.50
2022-12-23T08:07:45.153Z,10.00
2022-12-23T08:12:47.017Z,7.60
2022-12-23T08:17:48.891Z,8.80
2022-12-23T08:22:50.664Z,8.00
2022-12-23T08:27:52.509Z,10.10
2022-12-23T08:32:54.257Z,9.40
2022-12-23T08:37:56.470Z,10.00
2022-12-23T08:42:58.411Z,10.10
2022-12-23T08:48:00.100Z,10.00
2022-12-23T08:53:02.071Z,9.70
2022-12-23T08:58:03.767Z,8.90
2022-12-23T09:03:05.731Z,8.20
2022-12-23T09:08:08.423Z,7.60
2022-12-23T09:13:19.921Z,6.90
2022-12-23T09:18:26.886Z,6.60
2022-12-23T09:23:28.893Z,6.20
2022-12-23T09:28:30.697Z,6.80
2022-12-23T09:33:32.491Z,6.40
2022-12-23T09:38:34.781Z,6.50
2022-12-23T09:44:05.801Z,6.50
2022-12-23T09:49:13.597Z,6.70
2022-12-23T09:54:24.397Z,7.80
2022-12-23T09:59:47.679Z,7.10
2022-12-23T10:04:52.481Z,7.70
2022-12-23T10:09:57.699Z,7.10
2022-12-23T10:15:02.547Z,7.50
2022-12-23T10:20:08.361Z,6.60
2022-12-23T10:25:32.871Z,6.30
2022-12-23T10:36:09.585Z,4.70
2022-12-23T10:41:17.397Z,5.50
2022-12-23T10:46:43.906Z,5.40
2022-12-23T10:51:51.755Z,6.20
2022-12-23T10:56:54.843Z,5.80
2022-12-23T11:02:04.401Z,6.00
2022-12-23T11:07:42.695Z,6.00
2022-12-23T11:12:44.109Z,5.70
2022-12-23T11:18:00.169Z,5.60
2022-12-23T11:23:03.989Z,5.40
2022-12-23T11:28:11.861Z,6.30
2022-12-23T11:33:28.406Z,4.50
2022-12-23T11:44:26.976Z,5.60
2022-12-23T11:50:19.450Z,5.20
2022-12-23T11:56:28.290Z,5.80
2022-12-23T12:02:06.010Z,6.20
2022-12-23T12:07:13.233Z,6.80
2022-12-23T12:12:21.144Z,7.40
2022-12-23T12:17:25.383Z,8.20
2022-12-23T12:22:33.171Z,7.50
2022-12-23T12:27:39.591Z,7.30
2022-12-23T12:33:05.667Z,6.60
2022-12-23T12:38:33.432Z,7.60
2022-12-23T12:43:40.776Z,7.30
2022-12-23T12:48:57.008Z,6.00
2022-12-23T12:54:06.214Z,5.50
2022-12-23T12:59:16.567Z,5.50
2022-12-23T13:09:55.625Z,5.30
2022-12-23T13:15:23.620Z,5.90
2022-12-23T13:20:41.156Z,5.50
2022-12-23T13:25:47.153Z,4.90
2022-12-23T13:31:14.023Z,5.00
2022-12-23T13:36:37.322Z,5.40
2022-12-23T13:41:49.223Z,5.60
2022-12-23T13:46:57.310Z,5.90
2022-12-23T13:52:10.491Z,5.50
2022-12-23T13:57:32.031Z,5.60
2022-12-23T14:02:36.972Z,5.80
2022-12-23T14:07:44.866Z,6.10
2022-12-23T14:12:47.095Z,5.30
2022-12-23T14:18:04.905Z,6.10
2022-12-23T14:23:28.523Z,5.80
2022-12-23T14:28:55.302Z,4.90
2022-12-23T14:34:06.260Z,6.10
2022-12-23T14:39:14.062Z,6.50
2022-12-23T14:44:43.727Z,5.70
2022-12-23T14:49:45.688Z,6.10
2022-12-23T14:55:06.409Z,6.80
2022-12-23T15:00:10.315Z,6.70
2022-12-23T15:05:13.347Z,6.40
2022-12-23T15:10:21.820Z,8.30
2022-12-23T15:15:26.152Z,6.90
2022-12-23T15:20:28.378Z,7.50
2022-12-23T15:25:36.015Z,6.60
2022-12-23T15:30:48.455Z,8.10
2022-12-23T15:35:50.708Z,9.30
2022-12-23T15:41:01.559Z,13.00
2022-12-23T15:46:28.605Z,12.30
2022-12-23T15:52:05.959Z,12.80
2022-12-23T15:57:00.114Z,12.00
2022-12-23T16:02:58.461Z,11.40
2022-12-23T16:07:42.361Z,10.60
2022-12-23T16:12:44.559Z,10.40
2022-12-23T16:17:46.549Z,11.10
2022-12-23T16:22:51.268Z,10.60
2022-12-23T16:27:58.386Z,12.10
2022-12-23T16:33:03.357Z,12.10
2022-12-23T16:38:14.261Z,13.10
2022-12-23T16:43:17.084Z,15.00
2022-12-23T16:48:40.659Z,13.70
2022-12-23T16:53:42.493Z,15.50
2022-12-23T16:58:44.711Z,16.50
2022-12-23T17:03:46.576Z,14.00
2022-12-23T17:08:49.376Z,13.90
2022-12-23T17:13:51.194Z,15.30
2022-12-23T17:18:53.557Z,15.40
2022-12-23T17:24:03.386Z,15.50
2022-12-23T17:29:05.846Z,14.50
2022-12-23T17:34:11.863Z,14.90
2022-12-23T17:39:13.610Z,14.50
2022-12-23T17:44:17.639Z,15.00
2022-12-23T17:49:19.415Z,16.90
2022-12-23T17:54:25.010Z,15.10
2022-12-23T17:59:26.772Z,17.20
2022-12-23T18:04:28.502Z,15.40
2022-12-23T18:09:30.234Z,16.00
2022-12-23T18:14:32.213Z,15.90
2022-12-23T18:19:33.938Z,18.30
2022-12-23T18:24:35.639Z,19.50
2022-12-23T18:29:37.376Z,16.60
2022-12-23T18:34:39.306Z,15.30
2022-12-23T18:39:41.785Z,13.80
2022-12-23T18:44:44.901Z,13.20
2022-12-23T18:49:46.657Z,13.00
2022-12-23T18:54:48.443Z,12.10
2022-12-23T18:59:50.200Z,14.40
2022-12-23T19:04:52.469Z,12.90
2022-12-23T19:09:54.233Z,14.00
2022-12-23T19:14:55.995Z,14.40
2022-12-23T19:19:58.061Z,14.20
2022-12-23T19:25:05.752Z,14.00
2022-12-23T19:30:13.843Z,13.60
2022-12-23T19:35:15.816Z,14.00
2022-12-23T19:40:17.983Z,12.40
2022-12-23T19:45:19.853Z,10.90
2022-12-23T19:50:22.290Z,10.60
2022-12-23T19:55:25.444Z,10.40
2022-12-23T20:00:27.215Z,9.80
2022-12-23T20:05:28.992Z,10.20
2022-12-23T20:10:30.850Z,10.90
2022-12-23T20:15:32.675Z,10.70
2022-12-23T20:20:36.185Z,11.60
2022-12-23T20:25:37.931Z,12.20
2022-12-23T20:30:39.842Z,12.10
2022-12-23T20:35:41.828Z,11.00
2022-12-23T20:40:43.577Z,12.20
2022-12-23T20:45:46.310Z,12.30
2022-12-23T20:50:49.306Z,12.40
2022-12-23T20:55:51.126Z,13.60
2022-12-23T21:00:54.004Z,14.00
2022-12-23T21:05:56.860Z,11.40
2022-12-23T21:10:58.978Z,10.60
2022-12-23T21:16:06.393Z,10.50
2022-12-23T21:21:08.315Z,9.90
2022-12-23T21:26:20.815Z,9.60
2022-12-23T21:31:23.987Z,9.70
2022-12-23T21:36:29.169Z,9.40
2022-12-23T21:41:35.684Z,8.70
2022-12-23T21:46:37.464Z,9.70
2022-12-23T21:51:41.070Z,10.40
2022-12-23T21:56:43.406Z,10.60
2022-12-23T22:01:46.718Z,10.70
2022-12-23T22:06:48.526Z,11.20
2022-12-23T22:11:50.593Z,10.90
2022-12-23T22:16:56.277Z,11.30
2022-12-23T22:21:58.071Z,11.20
2022-12-23T22:26:59.887Z,11.90
2022-12-23T22:32:01.752Z,13.90
2022-12-23T22:37:03.481Z,13.30
2022-12-23T22:42:05.268Z,14.20
2022-12-23T22:47:07.252Z,16.10
2022-12-23T22:52:09.199Z,19.60
2022-12-23T22:57:11.458Z,19.10
2022-12-23T23:02:13.344Z,19.60
2022-12-23T23:07:15.122Z,21.00
2022-12-23T23:12:17.118Z,19.10
2022-12-23T23:17:21.036Z,19.40
2022-12-23T23:22:24.597Z,21.60
2022-12-23T23:27:26.417Z,23.70
2022-12-23T23:32:28.255Z,23.60
2022-12-23T23:37:30.042Z,19.80
2022-12-23T23:42:31.877Z,23.00
2022-12-23T23:47:34.950Z,26.30
2022-12-23T23:52:36.734Z,24.20
2022-12-23T23:57:38.464Z,21.30
